createdAt,value
2022-10-22T00:02:20.596Z,101018.38
2022-10-22T00:04:48.645Z,101008.28
2022-10-22T00:07:18.769Z,101016.13
2022-10-22T00:09:45.462Z,101019.31
2022-10-22T00:12:12.765Z,101015.09
2022-10-22T00:14:40.686Z,101027.94
2022-10-22T00:17:10.548Z,101017.53
2022-10-22T00:19:38.566Z,101033.84
2022-10-22T00:22:07.783Z,101033.09
2022-10-22T00:24:35.755Z,101033.56
2022-10-22T00:27:02.721Z,101044.44
2022-10-22T00:29:29.636Z,101048.34
2022-10-22T00:34:28.172Z,101047.63
2022-10-22T00:36:54.902Z,101048.34
2022-10-22T00:39:23.951Z,101053.38
2022-10-22T00:41:52.347Z,101053.53
2022-10-22T00:44:56.273Z,101043.84
2022-10-22T00:47:24.283Z,101043.84
2022-10-22T00:49:53.345Z,101031.91
2022-10-22T00:52:20.108Z,101023.75
2022-10-22T00:54:46.723Z,101023.44
2022-10-22T00:57:13.281Z,101028.91
2022-10-22T00:59:39.760Z,101031.63
2022-10-22T01:02:06.144Z,101031.63
2022-10-22T01:04:32.562Z,101040.53
2022-10-22T01:06:58.995Z,101035.25
2022-10-22T01:09:40.665Z,101029.81
2022-10-22T01:12:21.927Z,101035.56
2022-10-22T01:14:51.142Z,101035.72
2022-10-22T01:17:27.536Z,101042.66
2022-10-22T01:20:24.975Z,101045.88
2022-10-22T01:23:14.096Z,101046.59
2022-10-22T01:26:18.244Z,101039.34
2022-10-22T01:28:54.172Z,101036.63
2022-10-22T01:31:23.647Z,101040.28
2022-10-22T01:33:53.232Z,101047.25
2022-10-22T01:36:20.527Z,101053.13
2022-10-22T01:38:49.558Z,101060.84
2022-10-22T01:41:16.047Z,101069.44
2022-10-22T01:43:42.430Z,101085.34
2022-10-22T01:46:10.743Z,101081.56
2022-10-22T01:48:58.546Z,101084.28
2022-10-22T01:51:40.340Z,101082.78
2022-10-22T01:54:25.083Z,101079.75
2022-10-22T01:57:16.392Z,101080.50
2022-10-22T01:59:48.721Z,101074.31
2022-10-22T02:02:49.745Z,101059.66
2022-10-22T02:05:24.448Z,101059.66
2022-10-22T02:08:06.152Z,101055.41
2022-10-22T02:10:32.695Z,101051.94
2022-10-22T02:13:01.289Z,101047.75
2022-10-22T02:15:32.940Z,101050.47
2022-10-22T02:18:00.876Z,101057.38
2022-10-22T02:20:33.542Z,101064.06
2022-10-22T02:23:01.014Z,101051.63
2022-10-22T02:25:30.915Z,101060.56
2022-10-22T02:28:22.173Z,101066.00
2022-10-22T02:30:54.866Z,101055.13
2022-10-22T02:33:25.358Z,101061.00
2022-10-22T02:35:52.994Z,101063.72
2022-10-22T02:38:20.053Z,101058.28
2022-10-22T02:40:46.872Z,101056.78
2022-10-22T02:43:13.305Z,101058.78
2022-10-22T02:45:39.872Z,101053.75
2022-10-22T02:48:06.630Z,101045.59
2022-10-22T02:50:33.067Z,101043.66
2022-10-22T02:52:59.449Z,101045.59
2022-10-22T02:55:25.875Z,101039.84
2022-10-22T02:57:52.367Z,101042.13
2022-10-22T03:00:19.196Z,101046.06
2022-10-22T03:02:45.671Z,101053.00
2022-10-22T03:05:12.062Z,101054.22
2022-10-22T03:07:39.174Z,101045.28
2022-10-22T03:10:06.363Z,101045.78
2022-10-22T03:12:32.799Z,101051.97
2022-10-22T03:14:59.221Z,101058.63
2022-10-22T03:17:25.725Z,101059.38
2022-10-22T03:19:52.190Z,101052.41
2022-10-22T03:22:28.251Z,101049.69
2022-10-22T03:24:58.567Z,101059.81
2022-10-22T03:27:28.331Z,101055.56
2022-10-22T03:29:55.624Z,101053.94
2022-10-22T03:32:22.014Z,101065.75
2022-10-22T03:34:48.486Z,101068.47
2022-10-22T03:37:15.043Z,101071.63
2022-10-22T03:39:41.832Z,101073.59
2022-10-22T03:42:08.837Z,101073.16
2022-10-22T03:44:37.828Z,101070.41
2022-10-22T03:47:04.704Z,101079.34
2022-10-22T03:49:31.198Z,101077.34
2022-10-22T03:51:58.309Z,101078.25
2022-10-22T03:54:24.799Z,101082.94
2022-10-22T03:56:51.358Z,101089.13
2022-10-22T03:59:17.861Z,101083.69
2022-10-22T04:01:44.307Z,101088.38
2022-10-22T04:04:10.746Z,101094.31
2022-10-22T04:06:37.161Z,101084.19
2022-10-22T04:09:03.776Z,101085.38
2022-10-22T04:11:30.426Z,101087.63
2022-10-22T04:13:56.969Z,101087.34
2022-10-22T04:16:26.200Z,101092.03
2022-10-22T04:18:55.131Z,101091.28
2022-10-22T04:21:22.642Z,101094.00
2022-10-22T04:23:51.446Z,101100.19
2022-10-22T04:26:19.185Z,101099.13
2022-10-22T04:28:46.934Z,101099.91
2022-10-22T04:31:15.514Z,101108.81
2022-10-22T04:33:42.756Z,101111.53
2022-10-22T04:36:15.837Z,101112.75
2022-10-22T04:38:44.114Z,101112.00
2022-10-22T04:41:28.496Z,101120.59
2022-10-22T04:43:56.359Z,101111.22
2022-10-22T04:46:23.834Z,101122.13
2022-10-22T04:48:51.364Z,101114.41
2022-10-22T04:51:20.221Z,101119.41
2022-10-22T04:53:47.358Z,101116.41
2022-10-22T04:56:22.626Z,101118.63
2022-10-22T04:58:51.532Z,101120.28
2022-10-22T05:01:21.391Z,101123.31
2022-10-22T05:03:49.306Z,101119.84
2022-10-22T05:06:16.783Z,101129.22
2022-10-22T05:08:43.627Z,101122.25
2022-10-22T05:11:18.946Z,101116.81
2022-10-22T05:13:45.997Z,101124.22
2022-10-22T05:16:13.665Z,101126.94
2022-10-22T05:18:43.072Z,101132.38
2022-10-22T05:23:37.306Z,101142.50
2022-10-22T05:26:06.037Z,101140.28
2022-10-22T05:28:33.810Z,101144.03
2022-10-22T05:31:01.486Z,101144.78
2022-10-22T05:33:29.884Z,101149.63
2022-10-22T05:35:57.570Z,101146.88
2022-10-22T05:38:24.441Z,101143.41
2022-10-22T05:43:31.046Z,101136.00
2022-10-22T05:46:02.908Z,101132.97
2022-10-22T05:48:29.667Z,101132.97
2022-10-22T05:50:56.241Z,101132.72
2022-10-22T05:53:23.961Z,101131.16
2022-10-22T05:55:50.445Z,101131.16
2022-10-22T05:58:16.917Z,101138.16
2022-10-22T06:00:43.348Z,101131.91
2022-10-22T06:03:09.785Z,101130.41
2022-10-22T06:05:37.372Z,101135.09
2022-10-22T06:08:04.404Z,101139.06
2022-10-22T06:10:31.224Z,101144.00
2022-10-22T06:12:57.676Z,101155.66
2022-10-22T06:15:24.107Z,101157.59
2022-10-22T06:17:50.561Z,101162.78
2022-10-22T06:20:17.519Z,101169.41
2022-10-22T06:22:44.193Z,101177.84
2022-10-22T06:25:10.985Z,101176.66
2022-10-22T06:27:37.385Z,101174.41
2022-10-22T06:30:04.203Z,101175.63
2022-10-22T06:32:30.729Z,101172.41
2022-10-22T06:34:57.208Z,101171.06
2022-10-22T06:37:23.652Z,101176.50
2022-10-22T06:39:50.066Z,101179.22
2022-10-22T06:42:16.462Z,101178.75
2022-10-22T06:44:42.898Z,101166.69
2022-10-22T06:47:09.289Z,101162.91
2022-10-22T06:49:35.700Z,101165.31
2022-10-22T06:52:02.160Z,101171.84
2022-10-22T06:54:28.662Z,101172.91
2022-10-22T06:56:55.119Z,101184.81
2022-10-22T06:59:21.629Z,101187.13
2022-10-22T07:01:48.144Z,101192.06
2022-10-22T07:04:14.736Z,101187.25
2022-10-22T07:06:41.217Z,101187.69
2022-10-22T07:09:07.756Z,101199.19
2022-10-22T07:11:43.149Z,101207.66
2022-10-22T07:14:10.438Z,101215.81
2022-10-22T07:16:37.820Z,101217.19
2022-10-22T07:19:05.448Z,101214.03
2022-10-22T07:21:32.110Z,101219.75
2022-10-22T07:23:59.201Z,101220.53
2022-10-22T07:26:28.182Z,101227.00
2022-10-22T07:28:54.600Z,101228.09
2022-10-22T07:31:21.014Z,101238.50
2022-10-22T07:33:47.443Z,101229.13
2022-10-22T07:36:17.936Z,101234.16
2022-10-22T07:38:46.646Z,101228.22
2022-10-22T07:41:14.643Z,101232.47
2022-10-22T07:43:41.321Z,101235.94
2022-10-22T07:46:08.873Z,101242.91
2022-10-22T07:48:36.154Z,101252.59
2022-10-22T07:51:02.867Z,101248.66
2022-10-22T07:53:29.426Z,101256.38
2022-10-22T07:55:56.788Z,101261.34
2022-10-22T07:58:23.835Z,101266.34
2022-10-22T08:00:51.231Z,101272.09
2022-10-22T08:03:18.475Z,101270.88
2022-10-22T08:05:46.009Z,101276.31
2022-10-22T08:08:14.095Z,101266.97
2022-10-22T08:10:40.794Z,101273.44
2022-10-22T08:13:07.748Z,101275.41
2022-10-22T08:15:34.872Z,101275.41
2022-10-22T08:18:01.469Z,101274.53
2022-10-22T08:20:28.007Z,101281.00
2022-10-22T08:22:54.593Z,101285.88
2022-10-22T08:25:21.328Z,101290.84
2022-10-22T08:27:47.935Z,101286.03
2022-10-22T08:30:14.858Z,101288.28
2022-10-22T08:32:41.845Z,101286.19
2022-10-22T08:35:08.424Z,101286.78
2022-10-22T08:37:35.453Z,101284.19
2022-10-22T08:40:02.276Z,101297.50
2022-10-22T08:43:02.151Z,101291.91
2022-10-22T08:45:41.549Z,101296.75
2022-10-22T08:48:43.464Z,101299.63
2022-10-22T08:51:19.919Z,101302.94
2022-10-22T08:53:58.233Z,101300.06
2022-10-22T08:56:24.752Z,101305.78
2022-10-22T08:59:04.410Z,101313.81
2022-10-22T09:01:38.315Z,101304.28
2022-10-22T09:04:36.480Z,101297.91
2022-10-22T09:07:02.941Z,101298.06
2022-10-22T09:09:39.658Z,101306.97
2022-10-22T09:12:07.345Z,101302.88
2022-10-22T09:14:34.002Z,101307.41
2022-10-22T09:17:38.720Z,101313.47
2022-10-22T09:20:36.700Z,101311.34
2022-10-22T09:23:25.792Z,101311.63
2022-10-22T09:25:52.707Z,101313.88
2022-10-22T09:28:19.568Z,101314.47
2022-10-22T09:30:46.195Z,101308.56
2022-10-22T09:33:14.513Z,101312.84
2022-10-22T09:35:47.005Z,101310.38
2022-10-22T09:38:18.777Z,101311.13
2022-10-22T09:40:51.025Z,101306.16
2022-10-22T09:43:17.583Z,101314.91
2022-10-22T09:45:45.231Z,101312.66
2022-10-22T09:48:14.680Z,101316.44
2022-10-22T09:50:44.328Z,101316.13
2022-10-22T09:53:25.244Z,101321.88
2022-10-22T09:58:28.086Z,101326.59
2022-10-22T10:01:00.106Z,101324.63
2022-10-22T10:03:30.843Z,101320.38
2022-10-22T10:06:03.068Z,101324.31
2022-10-22T10:08:32.568Z,101331.28
2022-10-22T10:11:05.821Z,101330.53
2022-10-22T10:13:38.770Z,101327.81
2022-10-22T10:16:11.088Z,101329.31
2022-10-22T10:18:58.939Z,101325.53
2022-10-22T10:21:40.584Z,101340.22
2022-10-22T10:24:39.390Z,101336.75
2022-10-22T10:27:13.584Z,101339.75
2022-10-22T10:29:54.017Z,101335.97
2022-10-22T10:32:54.604Z,101335.97
2022-10-22T10:35:26.424Z,101335.22
2022-10-22T10:38:29.536Z,101334.47
2022-10-22T10:41:08.178Z,101331.75
2022-10-22T10:43:53.609Z,101334.47
2022-10-22T10:46:52.437Z,101339.47
2022-10-22T10:49:23.045Z,101333.56
2022-10-22T10:52:06.580Z,101337.50
2022-10-22T10:54:57.501Z,101336.75
2022-10-22T10:57:48.506Z,101335.03
2022-10-22T11:00:22.472Z,101341.84
2022-10-22T11:03:31.851Z,101343.66
2022-10-22T11:06:01.689Z,101341.22
2022-10-22T11:08:45.439Z,101338.81
2022-10-22T11:11:31.503Z,101346.03
2022-10-22T11:14:03.329Z,101338.94
2022-10-22T11:16:32.782Z,101342.72
2022-10-22T11:19:11.310Z,101345.75
2022-10-22T11:21:53.231Z,101341.78
2022-10-22T11:24:28.473Z,101344.34
2022-10-22T11:27:01.092Z,101332.50
2022-10-22T11:29:33.738Z,101327.81
2022-10-22T11:32:02.860Z,101332.06
2022-10-22T11:34:50.767Z,101330.84
2022-10-22T11:37:18.227Z,101335.81
2022-10-22T11:39:53.787Z,101335.03
2022-10-22T11:42:21.760Z,101328.09
2022-10-22T11:44:59.914Z,101330.53
2022-10-22T11:47:31.756Z,101325.09
2022-10-22T11:50:21.766Z,101327.97
2022-10-22T11:53:16.185Z,101326.00
2022-10-22T11:55:51.787Z,101321.75
2022-10-22T11:58:43.782Z,101324.66
2022-10-22T12:01:10.206Z,101321.19
2022-10-22T12:03:44.713Z,101322.09
2022-10-22T12:06:12.036Z,101320.59
2022-10-22T12:08:54.431Z,101319.09
2022-10-22T12:11:22.473Z,101325.00
2022-10-22T12:13:58.662Z,101321.50
2022-10-22T12:16:37.920Z,101319.25
2022-10-22T12:19:30.942Z,101325.63
2022-10-22T12:22:08.067Z,101323.69
2022-10-22T12:24:38.193Z,101334.25
2022-10-22T12:27:04.748Z,101326.56
2022-10-22T12:29:32.996Z,101324.28
2022-10-22T12:32:04.596Z,101327.44
2022-10-22T12:34:31.044Z,101329.16
2022-10-22T12:36:57.434Z,101325.66
2022-10-22T12:39:27.804Z,101326.44
2022-10-22T12:41:54.975Z,101319.44
2022-10-22T12:44:21.454Z,101318.66
2022-10-22T12:46:52.956Z,101312.03
2022-10-22T12:49:26.029Z,101317.03
2022-10-22T12:51:52.533Z,101316.28
2022-10-22T12:54:27.716Z,101312.50
2022-10-22T12:56:56.182Z,101317.19
2022-10-22T12:59:26.687Z,101316.88
2022-10-22T13:01:53.945Z,101321.28
2022-10-22T13:04:31.242Z,101319.47
2022-10-22T13:07:12.642Z,101324.94
2022-10-22T13:09:41.513Z,101327.66
2022-10-22T13:12:14.779Z,101328.59
2022-10-22T13:14:41.216Z,101334.06
2022-10-22T13:17:16.860Z,101339.50
2022-10-22T13:19:52.501Z,101336.28
2022-10-22T13:22:33.235Z,101341.75
2022-10-22T13:25:11.823Z,101333.09
2022-10-22T13:27:44.453Z,101338.09
2022-10-22T13:30:21.979Z,101336.13
2022-10-22T13:33:29.719Z,101343.09
2022-10-22T13:35:57.021Z,101338.41
2022-10-22T13:38:25.535Z,101338.41
2022-10-22T13:40:52.074Z,101334.91
2022-10-22T13:43:18.944Z,101337.94
2022-10-22T13:45:47.875Z,101343.84
2022-10-22T13:48:18.253Z,101338.88
2022-10-22T13:50:44.986Z,101338.41
2022-10-22T13:53:23.360Z,101329.47
2022-10-22T13:55:50.360Z,101338.25
2022-10-22T13:58:19.459Z,101343.69
2022-10-22T14:00:49.067Z,101335.53
2022-10-22T14:03:18.790Z,101344.47
2022-10-22T14:05:49.028Z,101339.47
2022-10-22T14:08:18.831Z,101340.69
2022-10-22T14:10:46.078Z,101344.91
2022-10-22T14:13:13.953Z,101350.66
2022-10-22T14:15:41.398Z,101342.78
2022-10-22T14:18:12.852Z,101344.75
2022-10-22T14:20:42.304Z,101347.03
2022-10-22T14:23:23.945Z,101336.88
2022-10-22T14:25:53.511Z,101339.59
2022-10-22T14:28:20.244Z,101339.13
2022-10-22T14:30:46.892Z,101344.56
2022-10-22T14:33:19.569Z,101341.09
2022-10-22T14:35:47.417Z,101341.09
2022-10-22T14:38:14.026Z,101334.91
2022-10-22T14:40:42.987Z,101338.84
2022-10-22T14:43:35.743Z,101345.81
2022-10-22T14:46:02.130Z,101347.31
2022-10-22T14:48:28.551Z,101349.28
2022-10-22T14:50:55.097Z,101349.00
2022-10-22T14:53:21.571Z,101340.81
2022-10-22T14:55:49.101Z,101349.00
2022-10-22T14:58:15.620Z,101348.25
2022-10-22T15:00:43.483Z,101349.00
2022-10-22T15:03:10.572Z,101351.28
2022-10-22T15:05:44.278Z,101354.72
2022-10-22T15:08:12.660Z,101350.50
2022-10-22T15:10:39.219Z,101354.28
2022-10-22T15:13:05.683Z,101358.22
2022-10-22T15:15:36.614Z,101357.94
2022-10-22T15:18:05.745Z,101360.19
2022-10-22T15:20:32.187Z,101364.91
2022-10-22T15:22:58.598Z,101380.03
2022-10-22T15:25:25.040Z,101373.09
2022-10-22T15:27:52.563Z,101372.59
2022-10-22T15:30:21.386Z,101376.88
2022-10-22T15:32:47.936Z,101371.41
2022-10-22T15:35:14.374Z,101381.38
2022-10-22T15:37:40.881Z,101373.66
2022-10-22T15:40:08.641Z,101377.91
2022-10-22T15:42:35.147Z,101378.66
2022-10-22T15:45:02.206Z,101375.94
2022-10-22T15:47:29.958Z,101384.13
2022-10-22T15:49:56.413Z,101388.34
2022-10-22T15:52:22.849Z,101390.63
2022-10-22T15:54:49.658Z,101393.66
2022-10-22T15:57:16.171Z,101388.34
2022-10-22T15:59:42.781Z,101400.47
2022-10-22T16:02:11.211Z,101400.06
2022-10-22T16:04:38.757Z,101401.53
2022-10-22T16:07:05.218Z,101400.31
2022-10-22T16:09:31.684Z,101408.50
2022-10-22T16:11:58.123Z,101419.41
2022-10-22T16:14:24.670Z,101414.72
2022-10-22T16:16:53.390Z,101414.72
2022-10-22T16:19:21.581Z,101414.72
2022-10-22T16:21:53.884Z,101424.88
2022-10-22T16:24:21.218Z,101416.41
2022-10-22T16:26:48.780Z,101422.44
2022-10-22T16:29:15.821Z,101423.66
2022-10-22T16:31:43.624Z,101436.28
2022-10-22T16:34:10.518Z,101435.06
2022-10-22T16:36:38.205Z,101432.19
2022-10-22T16:39:05.656Z,101446.72
2022-10-22T16:41:35.449Z,101449.91
2022-10-22T16:44:06.032Z,101453.09
2022-10-22T16:46:33.402Z,101460.22
2022-10-22T16:49:00.282Z,101464.59
2022-10-22T16:51:27.889Z,101465.09
2022-10-22T16:53:57.050Z,101474.94
2022-10-22T16:56:24.858Z,101471.13
2022-10-22T16:58:53.763Z,101474.63
2022-10-22T17:01:22.942Z,101472.81
2022-10-22T17:03:49.583Z,101476.44
2022-10-22T17:06:16.089Z,101476.44
2022-10-22T17:08:42.784Z,101473.41
2022-10-22T17:11:18.239Z,101492.19
2022-10-22T17:13:47.008Z,101490.69
2022-10-22T17:16:15.510Z,101490.81
2022-10-22T17:18:43.178Z,101490.81
2022-10-22T17:21:11.137Z,101499.47
2022-10-22T17:23:38.140Z,101501.88
2022-10-22T17:26:07.596Z,101511.25
2022-10-22T17:28:39.067Z,101508.97
2022-10-22T17:31:23.118Z,101503.53
2022-10-22T17:33:51.195Z,101506.72
2022-10-22T17:36:19.427Z,101509.44
2022-10-22T17:38:49.205Z,101515.34
2022-10-22T17:41:28.410Z,101516.84
2022-10-22T17:43:56.373Z,101513.09
2022-10-22T17:46:25.594Z,101523.50
2022-10-22T17:48:54.439Z,101525.16
2022-10-22T17:51:22.073Z,101532.16
2022-10-22T17:53:50.702Z,101539.25
2022-10-22T17:56:19.891Z,101538.50
2022-10-22T17:58:46.394Z,101538.97
2022-10-22T18:01:37.627Z,101540.94
2022-10-22T18:04:06.671Z,101538.03
2022-10-22T18:06:33.441Z,101537.41
2022-10-22T18:09:03.828Z,101540.94
2022-10-22T18:11:32.490Z,101538.97
2022-10-22T18:13:59.222Z,101535.16
2022-10-22T18:16:26.329Z,101537.59
2022-10-22T18:18:55.052Z,101540.72
2022-10-22T18:21:23.281Z,101542.28
2022-10-22T18:23:49.739Z,101540.00
2022-10-22T18:26:19.324Z,101541.50
2022-10-22T18:28:50.569Z,101547.72
2022-10-22T18:31:20.334Z,101550.91
2022-10-22T18:33:47.467Z,101548.63
2022-10-22T18:36:19.572Z,101545.91
2022-10-22T18:38:53.757Z,101537.72
2022-10-22T18:41:21.097Z,101544.38
2022-10-22T18:43:52.799Z,101545.59
2022-10-22T18:46:19.897Z,101546.78
2022-10-22T18:48:47.105Z,101551.94
2022-10-22T18:51:15.007Z,101555.72
2022-10-22T18:53:44.187Z,101553.16
2022-10-22T18:56:13.304Z,101557.38
2022-10-22T18:58:41.219Z,101553.91
2022-10-22T19:01:13.161Z,101559.03
2022-10-22T19:03:39.854Z,101556.75
2022-10-22T19:06:06.774Z,101559.03
2022-10-22T19:08:37.079Z,101549.34
2022-10-22T19:11:09.908Z,101559.47
2022-10-22T19:13:39.306Z,101562.22
2022-10-22T19:16:11.735Z,101562.22
2022-10-22T19:18:38.619Z,101568.13
2022-10-22T19:21:05.491Z,101575.53
2022-10-22T19:23:32.026Z,101574.75
2022-10-22T19:26:11.839Z,101577.47
2022-10-22T19:28:39.586Z,101574.91
2022-10-22T19:31:11.966Z,101574.47
2022-10-22T19:33:39.269Z,101580.38
2022-10-22T19:36:07.059Z,101585.06
2022-10-22T19:38:34.357Z,101586.25
2022-10-22T19:41:00.782Z,101590.81
2022-10-22T19:43:29.169Z,101597.47
2022-10-22T19:45:56.170Z,101595.16
2022-10-22T19:48:22.754Z,101597.59
2022-10-22T19:50:49.291Z,101604.56
2022-10-22T19:53:15.727Z,101601.84
2022-10-22T19:55:44.281Z,101603.06
2022-10-22T19:58:11.683Z,101610.47
2022-10-22T20:00:38.577Z,101604.56
2022-10-22T20:03:05.529Z,101606.22
2022-10-22T20:05:32.000Z,101607.75
2022-10-22T20:07:58.981Z,101612.84
2022-10-22T20:10:25.452Z,101615.16
2022-10-22T20:12:52.661Z,101609.72
2022-10-22T20:15:21.443Z,101607.88
2022-10-22T20:17:47.992Z,101618.28
2022-10-22T20:20:14.605Z,101612.56
2022-10-22T20:22:43.146Z,101618.44
2022-10-22T20:25:11.762Z,101623.91
2022-10-22T20:27:38.737Z,101624.22
2022-10-22T20:30:06.220Z,101630.88
2022-10-22T20:32:36.027Z,101637.06
2022-10-22T20:35:02.525Z,101637.06
2022-10-22T20:37:28.978Z,101637.53
2022-10-22T20:39:55.396Z,101643.72
2022-10-22T20:42:21.824Z,101647.22
2022-10-22T20:44:48.234Z,101646.94
2022-10-22T20:47:17.971Z,101651.59
2022-10-22T20:49:44.459Z,101645.38
2022-10-22T20:52:10.981Z,101655.50
2022-10-22T20:54:41.417Z,101655.22
2022-10-22T20:57:08.489Z,101652.03
2022-10-22T20:59:35.192Z,101663.41
2022-10-22T21:02:02.511Z,101657.94
2022-10-22T21:04:29.583Z,101664.59
2022-10-22T21:06:57.286Z,101668.09
2022-10-22T21:09:24.771Z,101660.69
2022-10-22T21:14:25.749Z,101661.88
2022-10-22T21:16:52.888Z,101661.09
2022-10-22T21:19:22.523Z,101655.31
2022-10-22T21:21:49.315Z,101660.31
2022-10-22T21:24:16.011Z,101654.88
2022-10-22T21:26:43.116Z,101652.31
2022-10-22T21:29:12.133Z,101652.31
2022-10-22T21:31:40.338Z,101654.25
2022-10-22T21:34:07.387Z,101660.03
2022-10-22T21:36:33.961Z,101657.75
2022-10-22T21:39:02.018Z,101655.03
2022-10-22T21:41:28.513Z,101654.72
2022-10-22T21:43:54.944Z,101655.44
2022-10-22T21:46:24.698Z,101650.00
2022-10-22T21:48:55.226Z,101650.00
2022-10-22T21:51:23.671Z,101656.69
2022-10-22T21:56:32.454Z,101665.63
2022-10-22T21:58:59.273Z,101676.50
2022-10-22T22:01:25.995Z,101670.75
2022-10-22T22:03:52.990Z,101666.47
2022-10-22T22:06:22.558Z,101676.19
2022-10-22T22:08:51.569Z,101677.34
2022-10-22T22:11:22.081Z,101677.34
2022-10-22T22:13:48.878Z,101682.06
2022-10-22T22:16:20.315Z,101682.81
2022-10-22T22:18:49.268Z,101679.34
2022-10-22T22:21:19.041Z,101678.59
2022-10-22T22:23:48.511Z,101677.84
2022-10-22T22:26:16.962Z,101680.88
2022-10-22T22:28:43.362Z,101684.78
2022-10-22T22:31:15.469Z,101677.84
2022-10-22T22:33:42.047Z,101685.53
2022-10-22T22:36:09.095Z,101680.56
2022-10-22T22:38:35.577Z,101676.31
2022-10-22T22:41:02.028Z,101667.69
2022-10-22T22:43:28.637Z,101672.06
2022-10-22T22:45:59.735Z,101677.50
2022-10-22T22:48:26.243Z,101678.75
2022-10-22T22:50:52.716Z,101673.59
2022-10-22T22:53:19.142Z,101681.47
2022-10-22T22:55:45.596Z,101678.75
2022-10-22T22:58:12.169Z,101675.22
2022-10-22T23:00:38.567Z,101674.16
2022-10-22T23:03:05.067Z,101677.63
2022-10-22T23:05:31.459Z,101677.94
2022-10-22T23:07:57.918Z,101676.88
2022-10-22T23:10:24.446Z,101673.28
2022-10-22T23:12:50.911Z,101666.31
2022-10-22T23:15:17.393Z,101665.53
2022-10-22T23:17:43.819Z,101658.88
2022-10-22T23:20:10.697Z,101669.78
2022-10-22T23:22:37.196Z,101668.69
2022-10-22T23:25:03.859Z,101667.22
2022-10-22T23:27:30.353Z,101666.47
2022-10-22T23:29:56.832Z,101669.19
2022-10-22T23:32:23.297Z,101669.19
2022-10-22T23:34:49.809Z,101664.16
2022-10-22T23:37:16.245Z,101672.31
2022-10-22T23:39:42.688Z,101668.06
2022-10-22T23:42:09.196Z,101666.09
2022-10-22T23:44:35.682Z,101668.81
2022-10-22T23:47:02.077Z,101668.06
2022-10-22T23:49:40.785Z,101668.06
2022-10-22T23:52:07.261Z,101664.72
2022-10-22T23:54:33.729Z,101665.34
2022-10-22T23:57:00.167Z,101665.34
2022-10-22T23:59:26.579Z,101672.03
